createdAt,value
2023-02-03T00:01:55.316Z,0.10
2023-02-03T00:04:22.377Z,0.10
2023-02-03T00:06:49.341Z,0.10
2023-02-03T00:09:16.460Z,0.20
2023-02-03T00:11:43.263Z,0.20
2023-02-03T00:14:10.031Z,0.30
2023-02-03T00:16:36.930Z,0.30
2023-02-03T00:19:04.033Z,0.20
2023-02-03T00:21:30.913Z,0.40
2023-02-03T00:23:57.685Z,0.20
2023-02-03T00:26:26.004Z,0.20
2023-02-03T00:28:52.853Z,0.00
2023-02-03T00:31:23.662Z,0.00
2023-02-03T00:33:56.141Z,0.00
2023-02-03T00:36:24.244Z,0.10
2023-02-03T00:38:51.135Z,0.20
2023-02-03T00:41:19.100Z,0.30
2023-02-03T00:43:45.965Z,0.10
2023-02-03T00:46:13.401Z,0.00
2023-02-03T00:48:40.383Z,0.10
2023-02-03T00:51:07.664Z,0.00
2023-02-03T00:53:34.452Z,0.00
2023-02-03T00:56:01.317Z,0.10
2023-02-03T00:58:28.108Z,0.10
2023-02-03T01:00:57.077Z,0.00
2023-02-03T01:03:24.158Z,0.10
2023-02-03T01:05:51.146Z,0.10
2023-02-03T01:08:18.033Z,0.10
2023-02-03T01:10:44.801Z,0.10
2023-02-03T01:13:11.572Z,0.10
2023-02-03T01:15:38.407Z,0.10
2023-02-03T01:18:05.208Z,0.10
2023-02-03T01:20:31.998Z,0.10
2023-02-03T01:22:58.781Z,0.20
2023-02-03T01:25:25.620Z,0.10
2023-02-03T01:27:52.372Z,0.10
2023-02-03T01:30:19.473Z,0.20
2023-02-03T01:32:46.239Z,0.30
2023-02-03T01:35:13.008Z,0.30
2023-02-03T01:37:39.794Z,0.30
2023-02-03T01:40:07.765Z,0.30
2023-02-03T01:42:34.776Z,0.40
2023-02-03T01:45:01.646Z,0.40
2023-02-03T01:47:37.392Z,0.40
2023-02-03T01:50:15.236Z,0.50
2023-02-03T01:52:45.836Z,0.50
2023-02-03T01:55:17.908Z,0.50
2023-02-03T01:57:59.956Z,0.50
2023-02-03T02:00:27.675Z,0.50
2023-02-03T02:02:55.464Z,0.50
2023-02-03T02:05:49.231Z,0.60
2023-02-03T02:08:18.598Z,0.60
2023-02-03T02:10:45.992Z,0.60
2023-02-03T02:13:13.379Z,0.60
2023-02-03T02:16:22.748Z,0.70
2023-02-03T02:19:40.294Z,0.70
2023-02-03T02:22:26.447Z,0.60
2023-02-03T02:25:14.036Z,0.60
2023-02-03T02:28:02.642Z,0.60
2023-02-03T02:30:54.486Z,0.70
2023-02-03T02:33:42.178Z,0.70
2023-02-03T02:36:54.283Z,0.70
2023-02-03T02:39:36.839Z,0.70
2023-02-03T02:42:12.407Z,0.70
2023-02-03T02:44:49.870Z,0.80
2023-02-03T02:47:20.431Z,0.80
2023-02-03T02:50:20.347Z,0.80
2023-02-03T02:52:50.163Z,0.80
2023-02-03T02:55:28.193Z,0.80
2023-02-03T02:57:58.137Z,0.80
2023-02-03T03:00:25.285Z,0.90
2023-02-03T03:02:52.243Z,0.90
2023-02-03T03:05:19.643Z,0.90
2023-02-03T03:07:56.620Z,0.90
2023-02-03T03:10:30.454Z,0.90
2023-02-03T03:13:07.668Z,0.90
2023-02-03T03:15:36.107Z,1.00
2023-02-03T03:18:11.058Z,0.90
2023-02-03T03:20:42.895Z,1.00
2023-02-03T03:23:39.810Z,1.00
2023-02-03T03:26:50.184Z,1.10
2023-02-03T03:29:22.952Z,1.10
2023-02-03T03:31:50.304Z,1.10
2023-02-03T03:34:18.321Z,1.20
2023-02-03T03:36:58.674Z,1.10
2023-02-03T03:39:47.740Z,1.10
2023-02-03T03:42:23.079Z,1.10
2023-02-03T03:44:55.059Z,1.20
2023-02-03T03:47:39.903Z,1.20
2023-02-03T03:50:11.742Z,1.20
2023-02-03T03:52:39.840Z,1.10
2023-02-03T03:55:10.560Z,1.10
2023-02-03T03:57:48.985Z,1.00
2023-02-03T04:00:19.185Z,1.10
2023-02-03T04:02:51.946Z,1.20
2023-02-03T04:05:19.965Z,1.10
2023-02-03T04:07:48.119Z,1.10
2023-02-03T04:10:24.053Z,1.20
2023-02-03T04:12:50.950Z,1.10
2023-02-03T04:15:17.740Z,1.10
2023-02-03T04:17:44.577Z,1.20
2023-02-03T04:20:12.420Z,1.20
2023-02-03T04:22:39.268Z,1.20
2023-02-03T04:25:06.455Z,1.20
2023-02-03T04:27:33.503Z,1.10
2023-02-03T04:30:00.372Z,1.20
2023-02-03T04:32:27.370Z,1.20
2023-02-03T04:34:54.173Z,1.30
2023-02-03T04:37:23.006Z,1.30
2023-02-03T04:39:52.188Z,1.40
2023-02-03T04:42:20.102Z,1.30
2023-02-03T04:44:47.218Z,1.30
2023-02-03T04:47:14.624Z,1.40
2023-02-03T04:49:41.418Z,1.50
2023-02-03T04:52:08.533Z,1.40
2023-02-03T04:54:35.689Z,1.40
2023-02-03T04:57:02.716Z,1.50
2023-02-03T04:59:29.582Z,1.50
2023-02-03T05:01:56.330Z,1.50
2023-02-03T05:04:23.411Z,1.60
2023-02-03T05:06:50.246Z,1.50
2023-02-03T05:09:17.287Z,1.50
2023-02-03T05:11:44.067Z,1.50
2023-02-03T05:14:10.960Z,1.70
2023-02-03T05:16:37.804Z,1.60
2023-02-03T05:19:04.734Z,1.70
2023-02-03T05:21:31.545Z,1.70
2023-02-03T05:23:58.424Z,1.70
2023-02-03T05:26:25.365Z,1.80
2023-02-03T05:28:53.262Z,1.80
2023-02-03T05:31:21.009Z,1.90
2023-02-03T05:33:47.868Z,1.90
2023-02-03T05:36:14.648Z,1.90
2023-02-03T05:38:42.511Z,2.00
2023-02-03T05:41:31.652Z,2.00
2023-02-03T05:43:58.449Z,1.90
2023-02-03T05:46:25.318Z,1.90
2023-02-03T05:48:52.070Z,2.00
2023-02-03T05:51:18.831Z,2.00
2023-02-03T05:53:45.591Z,2.00
2023-02-03T05:56:12.458Z,2.00
2023-02-03T05:58:39.244Z,2.00
2023-02-03T06:01:06.156Z,2.00
2023-02-03T06:03:33.070Z,2.00
2023-02-03T06:05:59.944Z,2.10
2023-02-03T06:08:28.618Z,2.10
2023-02-03T06:11:04.836Z,2.10
2023-02-03T06:13:31.685Z,2.20
2023-02-03T06:15:58.464Z,2.20
2023-02-03T06:18:25.293Z,2.10
2023-02-03T06:20:52.234Z,2.10
2023-02-03T06:23:19.310Z,2.20
2023-02-03T06:25:49.140Z,2.20
2023-02-03T06:28:16.676Z,2.10
2023-02-03T06:30:44.414Z,2.10
2023-02-03T06:33:11.304Z,2.10
2023-02-03T06:35:38.144Z,2.20
2023-02-03T06:38:04.995Z,2.10
2023-02-03T06:40:31.867Z,2.00
2023-02-03T06:42:58.722Z,2.10
2023-02-03T06:45:25.815Z,2.10
2023-02-03T06:47:52.751Z,2.10
2023-02-03T06:50:19.787Z,2.10
2023-02-03T06:52:46.612Z,2.10
2023-02-03T06:55:13.401Z,2.20
2023-02-03T06:57:48.169Z,2.20
2023-02-03T07:00:19.198Z,2.20
2023-02-03T07:02:46.668Z,2.20
2023-02-03T07:05:13.943Z,2.20
2023-02-03T07:07:40.801Z,2.30
2023-02-03T07:10:08.540Z,2.40
2023-02-03T07:12:36.581Z,2.30
2023-02-03T07:15:05.284Z,2.30
2023-02-03T07:17:32.213Z,2.30
2023-02-03T07:19:59.060Z,2.20
2023-02-03T07:22:25.858Z,2.20
2023-02-03T07:24:52.635Z,2.20
2023-02-03T07:27:20.315Z,2.30
2023-02-03T07:29:47.142Z,2.30
2023-02-03T07:32:14.207Z,2.30
2023-02-03T07:34:41.218Z,2.20
2023-02-03T07:37:08.005Z,2.30
2023-02-03T07:39:34.805Z,2.30
2023-02-03T07:42:01.588Z,2.30
2023-02-03T07:44:28.358Z,2.30
2023-02-03T07:46:55.451Z,2.30
2023-02-03T07:49:22.244Z,2.30
2023-02-03T07:51:49.180Z,2.30
2023-02-03T07:54:16.052Z,2.40
2023-02-03T07:56:43.476Z,2.40
2023-02-03T07:59:10.393Z,2.50
2023-02-03T08:01:37.324Z,2.60
2023-02-03T08:04:05.599Z,2.60
2023-02-03T08:06:32.798Z,2.50
2023-02-03T08:08:59.853Z,2.60
2023-02-03T08:11:26.755Z,2.70
2023-02-03T08:13:53.652Z,2.80
2023-02-03T08:16:20.637Z,2.80
2023-02-03T08:18:47.519Z,2.60
2023-02-03T08:21:14.743Z,2.80
2023-02-03T08:23:41.590Z,2.80
2023-02-03T08:26:08.393Z,2.80
2023-02-03T08:28:35.280Z,2.70
2023-02-03T08:31:02.510Z,2.70
2023-02-03T08:33:29.592Z,2.80
2023-02-03T08:35:57.011Z,2.80
2023-02-03T08:38:24.145Z,2.90
2023-02-03T08:40:51.191Z,2.80
2023-02-03T08:43:18.279Z,2.80
2023-02-03T08:45:45.170Z,2.90
2023-02-03T08:48:12.125Z,2.80
2023-02-03T08:50:44.367Z,2.70
2023-02-03T08:53:11.505Z,2.60
2023-02-03T08:55:41.763Z,2.60
2023-02-03T08:58:08.620Z,2.70
2023-02-03T09:00:35.483Z,2.70
2023-02-03T09:59:27.886Z,2.90
2023-02-03T10:02:24.511Z,3.00
2023-02-03T10:04:53.419Z,3.10
2023-02-03T10:07:34.599Z,3.10
2023-02-03T10:17:38.809Z,3.20
2023-02-03T10:20:35.966Z,3.20
2023-02-03T10:24:13.164Z,3.10
2023-02-03T10:26:49.298Z,3.20
2023-02-03T10:29:34.336Z,3.20
2023-02-03T10:32:01.453Z,3.20
2023-02-03T10:34:28.337Z,3.30
2023-02-03T10:37:03.851Z,3.20
2023-02-03T10:42:46.691Z,3.10
2023-02-03T10:45:15.618Z,3.20
2023-02-03T10:47:55.544Z,3.20
2023-02-03T10:50:31.601Z,3.20
2023-02-03T10:53:32.355Z,3.20
2023-02-03T10:56:10.692Z,3.20
2023-02-03T10:58:47.166Z,3.20
2023-02-03T11:01:23.099Z,3.20
2023-02-03T11:04:05.293Z,3.20
2023-02-03T11:06:36.876Z,3.20
2023-02-03T11:09:39.850Z,3.30
2023-02-03T11:12:21.496Z,3.40
2023-02-03T11:14:52.602Z,3.30
2023-02-03T11:17:30.319Z,3.50
2023-02-03T11:20:14.292Z,3.40
2023-02-03T11:22:43.953Z,3.70
2023-02-03T11:25:33.435Z,3.70
2023-02-03T11:28:10.253Z,3.60
2023-02-03T11:30:38.826Z,3.60
2023-02-03T11:33:24.082Z,3.60
2023-02-03T11:35:59.987Z,3.60
2023-02-03T11:38:33.439Z,3.70
2023-02-03T11:41:04.735Z,3.70
2023-02-03T11:43:31.730Z,3.90
2023-02-03T11:46:12.433Z,3.90
2023-02-03T11:48:59.735Z,3.80
2023-02-03T11:51:52.439Z,3.80
2023-02-03T11:54:41.357Z,3.80
2023-02-03T11:57:47.033Z,3.80
2023-02-03T12:00:54.212Z,3.70
2023-02-03T12:04:00.479Z,3.90
2023-02-03T12:07:20.410Z,3.80
2023-02-03T12:10:10.088Z,3.80
2023-02-03T12:13:05.817Z,3.90
2023-02-03T12:15:54.555Z,3.80
2023-02-03T12:18:32.436Z,3.80
2023-02-03T12:21:26.430Z,3.90
2023-02-03T12:24:24.175Z,3.80
2023-02-03T12:27:39.487Z,3.80
2023-02-03T12:30:27.874Z,3.80
2023-02-03T12:33:02.681Z,3.90
2023-02-03T12:35:36.464Z,3.90
2023-02-03T12:38:18.653Z,3.90
2023-02-03T12:40:55.650Z,3.90
2023-02-03T12:43:49.444Z,3.90
2023-02-03T12:46:28.193Z,3.90
2023-02-03T12:49:25.551Z,4.00
2023-02-03T12:52:02.582Z,3.90
2023-02-03T12:54:45.518Z,3.90
2023-02-03T12:57:44.947Z,4.10
2023-02-03T13:00:19.601Z,4.10
2023-02-03T13:03:02.550Z,4.00
2023-02-03T13:06:19.150Z,3.90
2023-02-03T13:09:34.844Z,4.00
2023-02-03T13:12:44.215Z,4.00
2023-02-03T13:15:32.908Z,3.90
2023-02-03T13:18:26.508Z,3.90
2023-02-03T13:20:54.488Z,3.90
2023-02-03T13:23:24.166Z,3.90
2023-02-03T13:26:16.700Z,3.80
2023-02-03T13:28:53.457Z,3.90
2023-02-03T13:31:57.591Z,3.90
2023-02-03T13:34:39.665Z,3.80
2023-02-03T13:37:34.286Z,3.80
2023-02-03T13:40:22.797Z,3.80
2023-02-03T13:43:03.744Z,3.90
2023-02-03T13:45:42.335Z,3.90
2023-02-03T13:48:31.583Z,4.20
2023-02-03T13:51:43.359Z,4.10
2023-02-03T13:54:37.078Z,4.00
2023-02-03T13:57:20.227Z,4.20
2023-02-03T13:59:48.370Z,4.20
2023-02-03T14:02:26.884Z,4.10
2023-02-03T14:04:59.379Z,4.10
2023-02-03T14:07:45.934Z,4.20
2023-02-03T14:10:13.024Z,4.10
2023-02-03T14:12:52.090Z,4.00
2023-02-03T14:15:28.809Z,4.10
2023-02-03T14:18:07.225Z,4.20
2023-02-03T14:20:48.838Z,4.10
2023-02-03T14:23:26.303Z,4.20
2023-02-03T14:25:58.391Z,4.20
2023-02-03T14:28:39.938Z,4.30
2023-02-03T14:31:23.068Z,4.20
2023-02-03T14:33:57.354Z,4.10
2023-02-03T14:36:35.874Z,4.10
2023-02-03T14:39:36.453Z,4.20
2023-02-03T14:42:11.779Z,4.10
2023-02-03T14:44:44.215Z,4.10
2023-02-03T14:47:32.376Z,4.20
2023-02-03T14:50:38.329Z,4.10
2023-02-03T14:53:47.893Z,4.30
2023-02-03T14:57:16.708Z,4.20
2023-02-03T14:59:54.882Z,4.10
2023-02-03T15:02:26.317Z,4.20
2023-02-03T15:05:13.462Z,4.50
2023-02-03T15:07:52.086Z,4.30
2023-02-03T15:10:24.258Z,4.40
2023-02-03T15:12:54.378Z,4.30
2023-02-03T15:15:31.543Z,4.30
2023-02-03T15:18:20.120Z,4.20
2023-02-03T15:20:53.362Z,4.20
2023-02-03T15:23:25.403Z,4.10
2023-02-03T15:26:03.166Z,4.30
2023-02-03T15:28:30.625Z,4.20
2023-02-03T15:31:44.935Z,4.10
2023-02-03T15:34:35.468Z,4.20
2023-02-03T15:37:18.282Z,4.30
2023-02-03T15:39:53.936Z,4.20
2023-02-03T15:42:50.962Z,4.40
2023-02-03T15:45:29.551Z,4.30
2023-02-03T15:48:05.458Z,4.40
2023-02-03T15:50:49.004Z,4.40
2023-02-03T15:53:27.666Z,4.50
2023-02-03T15:56:05.315Z,4.50
2023-02-03T15:58:45.807Z,4.40
2023-02-03T16:01:17.731Z,4.50
2023-02-03T16:03:55.971Z,4.70
2023-02-03T16:06:44.911Z,4.60
2023-02-03T16:09:42.008Z,4.80
2023-02-03T16:12:17.544Z,4.70
2023-02-03T16:14:45.055Z,4.80
2023-02-03T16:17:32.533Z,5.00
2023-02-03T16:20:11.607Z,5.20
2023-02-03T16:22:38.314Z,5.20
2023-02-03T16:25:24.907Z,5.20
2023-02-03T16:28:27.284Z,5.00
2023-02-03T16:31:22.123Z,4.90
2023-02-03T16:34:10.497Z,5.20
2023-02-03T16:37:01.694Z,5.20
2023-02-03T16:39:47.821Z,5.00
2023-02-03T16:42:40.249Z,5.00
2023-02-03T16:45:34.999Z,5.20
2023-02-03T16:48:22.544Z,5.00
2023-02-03T16:50:58.939Z,5.00
2023-02-03T16:53:30.986Z,5.00
2023-02-03T16:56:04.525Z,4.80
2023-02-03T16:58:32.258Z,4.90
2023-02-03T17:01:02.719Z,4.90
2023-02-03T17:03:32.723Z,4.80
2023-02-03T17:06:05.798Z,4.90
2023-02-03T17:08:34.668Z,5.10
2023-02-03T17:11:09.635Z,5.00
2023-02-03T17:13:36.839Z,5.20
2023-02-03T17:16:11.074Z,5.30
2023-02-03T17:18:39.660Z,5.30
2023-02-03T17:21:10.833Z,5.20
2023-02-03T17:23:38.440Z,5.20
2023-02-03T17:26:06.344Z,5.20
2023-02-03T17:28:33.744Z,5.30
2023-02-03T17:31:04.455Z,5.40
2023-02-03T17:33:32.986Z,5.40
2023-02-03T17:36:16.440Z,5.70
2023-02-03T17:55:18.899Z,5.40
2023-02-03T17:57:45.688Z,5.40
2023-02-03T18:00:13.066Z,5.50
2023-02-03T18:02:40.086Z,5.50
2023-02-03T18:05:07.499Z,5.70
2023-02-03T18:07:34.290Z,5.80
2023-02-03T18:10:01.168Z,5.90
2023-02-03T18:12:27.943Z,5.60
2023-02-03T18:14:55.049Z,5.80
2023-02-03T18:17:22.488Z,5.80
2023-02-03T18:19:55.759Z,5.90
2023-02-03T18:22:23.329Z,5.80
2023-02-03T18:24:52.931Z,5.70
2023-02-03T18:27:20.103Z,5.80
2023-02-03T18:29:48.412Z,5.50
2023-02-03T18:32:16.717Z,5.40
2023-02-03T18:34:43.790Z,5.40
2023-02-03T18:37:11.253Z,5.40
2023-02-03T18:39:38.489Z,4.90
2023-02-03T18:42:07.107Z,5.40
2023-02-03T18:44:34.104Z,5.20
2023-02-03T18:47:06.519Z,5.20
2023-02-03T18:49:35.755Z,5.30
2023-02-03T18:52:02.600Z,5.30
2023-02-03T18:54:29.620Z,5.40
2023-02-03T18:57:00.612Z,5.30
2023-02-03T18:59:27.413Z,5.50
2023-02-03T19:01:54.248Z,5.20
2023-02-03T19:04:21.142Z,5.50
2023-02-03T19:06:48.027Z,5.40
2023-02-03T19:09:17.853Z,5.50
2023-02-03T19:11:45.075Z,5.50
2023-02-03T19:14:14.225Z,5.50
2023-02-03T19:16:41.110Z,5.40
2023-02-03T19:19:08.147Z,5.50
2023-02-03T19:21:35.481Z,5.40
2023-02-03T19:24:02.257Z,5.60
2023-02-03T19:26:29.207Z,5.50
2023-02-03T19:28:56.205Z,5.50
2023-02-03T19:31:23.505Z,5.40
2023-02-03T19:33:50.751Z,5.30
2023-02-03T19:36:17.717Z,5.30
2023-02-03T19:38:44.573Z,5.40
2023-02-03T19:41:11.796Z,5.30
2023-02-03T19:43:40.027Z,5.20
2023-02-03T19:46:08.454Z,5.30
2023-02-03T19:48:36.349Z,5.20
2023-02-03T19:51:03.349Z,5.20
2023-02-03T19:53:30.170Z,5.30
2023-02-03T19:55:57.090Z,5.10
2023-02-03T19:58:24.088Z,5.10
2023-02-03T20:00:51.757Z,5.00
2023-02-03T20:03:19.900Z,5.10
2023-02-03T20:05:47.131Z,5.20
2023-02-03T20:08:15.796Z,5.20
2023-02-03T20:10:46.092Z,5.00
2023-02-03T20:13:13.717Z,5.10
2023-02-03T20:15:41.085Z,5.20
2023-02-03T20:18:08.662Z,5.20
2023-02-03T20:20:36.173Z,5.30
2023-02-03T20:23:03.331Z,5.10
2023-02-03T20:25:30.353Z,5.30
2023-02-03T20:27:58.311Z,5.30
2023-02-03T20:30:25.295Z,5.30
2023-02-03T20:32:54.592Z,5.20
2023-02-03T20:35:23.856Z,5.20
2023-02-03T20:37:51.235Z,5.20
2023-02-03T20:40:22.399Z,5.00
2023-02-03T20:42:50.124Z,5.10
2023-02-03T20:45:19.746Z,5.20
2023-02-03T20:47:47.199Z,5.20
2023-02-03T20:50:18.232Z,5.10
2023-02-03T20:52:49.644Z,5.20
2023-02-03T20:55:20.303Z,5.00
2023-02-03T20:57:51.535Z,5.10
2023-02-03T21:00:24.915Z,5.20
2023-02-03T21:03:11.130Z,5.10
2023-02-03T21:05:42.118Z,5.00
2023-02-03T21:08:18.680Z,5.00
2023-02-03T21:10:47.303Z,4.80
2023-02-03T21:13:23.815Z,4.90
2023-02-03T21:15:54.964Z,4.90
2023-02-03T21:18:34.066Z,5.10
2023-02-03T21:21:02.251Z,5.00
2023-02-03T21:23:39.988Z,4.80
2023-02-03T21:26:32.152Z,4.90
2023-02-03T21:29:01.008Z,5.00
2023-02-03T21:31:33.930Z,4.80
2023-02-03T21:34:03.798Z,4.90
2023-02-03T21:36:38.259Z,4.80
2023-02-03T21:39:31.775Z,4.80
2023-02-03T21:42:05.345Z,4.80
2023-02-03T21:44:35.397Z,4.60
2023-02-03T21:47:11.942Z,4.30
2023-02-03T21:49:38.671Z,4.30
2023-02-03T21:52:11.202Z,4.50
2023-02-03T21:54:43.489Z,4.30
2023-02-03T21:57:16.951Z,4.40
2023-02-03T21:59:46.998Z,4.40
2023-02-03T22:03:09.448Z,4.70
2023-02-03T22:05:36.326Z,4.60
2023-02-03T22:08:20.060Z,4.70
2023-02-03T22:10:47.483Z,4.60
2023-02-03T22:13:15.518Z,4.70
2023-02-03T22:15:43.357Z,4.60
2023-02-03T22:18:10.751Z,4.40
2023-02-03T22:20:37.563Z,4.40
2023-02-03T22:23:04.826Z,4.60
2023-02-03T22:25:31.672Z,4.40
2023-02-03T22:27:58.682Z,4.10
2023-02-03T22:30:25.502Z,4.30
2023-02-03T22:32:52.277Z,4.40
2023-02-03T22:35:19.085Z,4.70
2023-02-03T22:37:45.958Z,4.50
2023-02-03T22:40:13.052Z,4.20
2023-02-03T22:42:40.149Z,4.30
2023-02-03T22:45:08.112Z,4.20
2023-02-03T22:47:34.961Z,4.40
2023-02-03T22:50:01.843Z,4.30
2023-02-03T22:52:28.653Z,4.60
2023-02-03T22:54:55.504Z,4.50
2023-02-03T22:57:22.380Z,4.20
2023-02-03T22:59:49.122Z,4.40
2023-02-03T23:02:16.740Z,4.50
2023-02-03T23:04:43.644Z,4.10
2023-02-03T23:07:10.439Z,4.40
2023-02-03T23:09:37.254Z,4.70
2023-02-03T23:12:04.527Z,4.60
2023-02-03T23:14:31.380Z,4.80
2023-02-03T23:16:58.151Z,4.80
2023-02-03T23:19:25.013Z,4.50
2023-02-03T23:21:51.821Z,4.80
2023-02-03T23:24:18.570Z,4.90
2023-02-03T23:26:45.391Z,4.80
2023-02-03T23:29:12.158Z,4.60
2023-02-03T23:31:39.075Z,4.90
2023-02-03T23:34:24.304Z,5.10
2023-02-03T23:36:51.111Z,5.00
2023-02-03T23:39:17.910Z,4.40
2023-02-03T23:41:44.659Z,4.60
2023-02-03T23:44:11.746Z,4.90
2023-02-03T23:46:39.749Z,4.90
2023-02-03T23:49:07.317Z,4.80
2023-02-03T23:51:34.906Z,4.90
2023-02-03T23:54:01.759Z,4.70
2023-02-03T23:56:28.999Z,4.60
2023-02-03T23:58:56.579Z,4.80
